sensor_id;sensor_type;location;lat;lon;timestamp;pressure;altitude;pressure_sealevel;temperature;humidity
62150;BME280;48134;53.586;10.610;2024-02-23T00:02:26;97327.63;;;8.47;100.00
62150;BME280;48134;53.586;10.610;2024-02-23T00:04:54;97324.44;;;8.45;100.00
62150;BME280;48134;53.586;10.610;2024-02-23T00:07:27;97314.63;;;8.40;100.00
62150;BME280;48134;53.586;10.610;2024-02-23T00:10:02;97304.84;;;8.36;100.00
62150;BME280;48134;53.586;10.610;2024-02-23T00:12:35;97299.50;;;8.39;100.00
62150;BME280;48134;53.586;10.610;2024-02-23T00:15:09;97325.47;;;8.40;100.00
62150;BME280;48134;53.586;10.610;2024-02-23T00:17:42;97331.59;;;8.37;100.00
62150;BME280;48134;53.586;10.610;2024-02-23T00:20:11;97318.28;;;8.32;100.00
62150;BME280;48134;53.586;10.610;2024-02-23T00:22:44;97340.91;;;8.24;100.00
62150;BME280;48134;53.586;10.610;2024-02-23T00:25:19;97338.97;;;8.24;100.00
62150;BME280;48134;53.586;10.610;2024-02-23T00:27:52;97351.41;;;8.25;100.00
62150;BME280;48134;53.586;10.610;2024-02-23T00:30:25;97353.47;;;8.16;100.00
62150;BME280;48134;53.586;10.610;2024-02-23T00:32:59;97365.38;;;7.99;100.00
62150;BME280;48134;53.586;10.610;2024-02-23T00:35:32;97372.56;;;7.79;100.00
62150;BME280;48134;53.586;10.610;2024-02-23T00:38:05;97373.91;;;7.73;100.00
62150;BME280;48134;53.586;10.610;2024-02-23T00:40:40;97370.56;;;7.63;100.00
62150;BME280;48134;53.586;10.610;2024-02-23T00:43:14;97383.19;;;7.47;100.00
62150;BME280;48134;53.586;10.610;2024-02-23T00:45:47;97364.75;;;7.37;100.00
62150;BME280;48134;53.586;10.610;2024-02-23T00:48:20;97386.03;;;7.38;100.00
62150;BME280;48134;53.586;10.610;2024-02-23T00:50:54;97389.41;;;7.47;100.00
62150;BME280;48134;53.586;10.610;2024-02-23T00:53:22;97396.72;;;7.47;100.00
62150;BME280;48134;53.586;10.610;2024-02-23T00:55:56;97409.59;;;7.50;100.00
62150;BME280;48134;53.586;10.610;2024-02-23T00:58:29;97400.69;;;7.49;100.00
62150;BME280;48134;53.586;10.610;2024-02-23T01:01:03;97392.47;;;7.46;100.00
62150;BME280;48134;53.586;10.610;2024-02-23T01:03:36;97409.34;;;7.43;100.00
62150;BME280;48134;53.586;10.610;2024-02-23T01:06:09;97407.81;;;7.42;100.00
62150;BME280;48134;53.586;10.610;2024-02-23T01:08:43;97419.06;;;7.31;100.00
62150;BME280;48134;53.586;10.610;2024-02-23T01:11:12;97421.00;;;7.31;100.00
62150;BME280;48134;53.586;10.610;2024-02-23T01:13:45;97433.06;;;7.34;100.00
62150;BME280;48134;53.586;10.610;2024-02-23T01:16:18;97435.63;;;7.30;100.00
62150;BME280;48134;53.586;10.610;2024-02-23T01:18:52;97445.09;;;7.24;100.00
62150;BME280;48134;53.586;10.610;2024-02-23T01:21:25;97455.59;;;7.25;100.00
62150;BME280;48134;53.586;10.610;2024-02-23T01:23:58;97463.91;;;7.20;100.00
62150;BME280;48134;53.586;10.610;2024-02-23T01:26:33;97466.97;;;7.19;100.00
62150;BME280;48134;53.586;10.610;2024-02-23T01:29:07;97472.03;;;7.20;100.00
62150;BME280;48134;53.586;10.610;2024-02-23T01:31:40;97523.03;;;7.09;100.00
62150;BME280;48134;53.586;10.610;2024-02-23T01:34:08;97536.88;;;6.95;100.00
62150;BME280;48134;53.586;10.610;2024-02-23T01:36:36;97562.16;;;6.57;100.00
62150;BME280;48134;53.586;10.610;2024-02-23T01:39:11;97549.03;;;5.57;100.00
62150;BME280;48134;53.586;10.610;2024-02-23T01:41:45;97565.47;;;5.26;100.00
62150;BME280;48134;53.586;10.610;2024-02-23T01:44:18;97573.28;;;5.19;100.00
62150;BME280;48134;53.586;10.610;2024-02-23T01:46:53;97600.38;;;5.14;100.00
62150;BME280;48134;53.586;10.610;2024-02-23T01:49:27;97598.50;;;5.14;100.00
62150;BME280;48134;53.586;10.610;2024-02-23T01:51:58;97602.78;;;5.06;100.00
62150;BME280;48134;53.586;10.610;2024-02-23T01:54:26;97601.19;;;5.05;100.00
62150;BME280;48134;53.586;10.610;2024-02-23T01:57:02;97623.88;;;5.13;100.00
62150;BME280;48134;53.586;10.610;2024-02-23T01:59:31;97622.59;;;5.10;100.00
62150;BME280;48134;53.586;10.610;2024-02-23T02:02:04;97653.03;;;5.02;100.00
62150;BME280;48134;53.586;10.610;2024-02-23T02:04:38;97664.63;;;5.11;100.00
62150;BME280;48134;53.586;10.610;2024-02-23T02:07:11;97662.56;;;5.00;100.00
62150;BME280;48134;53.586;10.610;2024-02-23T02:09:40;97678.72;;;5.00;100.00
62150;BME280;48134;53.586;10.610;2024-02-23T02:12:14;97693.97;;;5.04;100.00
62150;BME280;48134;53.586;10.610;2024-02-23T02:14:42;97694.56;;;5.01;100.00
62150;BME280;48134;53.586;10.610;2024-02-23T02:17:16;97705.53;;;5.05;100.00
62150;BME280;48134;53.586;10.610;2024-02-23T02:19:50;97708.88;;;5.02;100.00
62150;BME280;48134;53.586;10.610;2024-02-23T02:22:23;97721.22;;;4.94;100.00
62150;BME280;48134;53.586;10.610;2024-02-23T02:24:56;97707.91;;;4.89;100.00
62150;BME280;48134;53.586;10.610;2024-02-23T02:27:26;97718.06;;;4.92;100.00
62150;BME280;48134;53.586;10.610;2024-02-23T02:29:59;97735.19;;;4.96;100.00
62150;BME280;48134;53.586;10.610;2024-02-23T02:32:33;97734.06;;;5.06;100.00
62150;BME280;48134;53.586;10.610;2024-02-23T02:35:06;97740.75;;;5.08;100.00
62150;BME280;48134;53.586;10.610;2024-02-23T02:37:40;97753.25;;;5.13;100.00
62150;BME280;48134;53.586;10.610;2024-02-23T02:40:13;97766.75;;;5.04;100.00
62150;BME280;48134;53.586;10.610;2024-02-23T02:42:47;97776.09;;;5.07;100.00
62150;BME280;48134;53.586;10.610;2024-02-23T02:45:21;97774.97;;;5.08;100.00
62150;BME280;48134;53.586;10.610;2024-02-23T02:47:55;97776.56;;;5.09;100.00
62150;BME280;48134;53.586;10.610;2024-02-23T02:50:28;97789.41;;;5.03;100.00
62150;BME280;48134;53.586;10.610;2024-02-23T02:53:01;97813.84;;;5.07;100.00
62150;BME280;48134;53.586;10.610;2024-02-23T02:55:34;97810.66;;;5.05;100.00
62150;BME280;48134;53.586;10.610;2024-02-23T02:58:10;97819.38;;;5.10;100.00
62150;BME280;48134;53.586;10.610;2024-02-23T03:00:39;97842.53;;;5.11;100.00
62150;BME280;48134;53.586;10.610;2024-02-23T03:03:08;97850.31;;;5.13;100.00
62150;BME280;48134;53.586;10.610;2024-02-23T03:05:36;97843.63;;;4.93;100.00
62150;BME280;48134;53.586;10.610;2024-02-23T03:08:05;97860.56;;;4.93;100.00
62150;BME280;48134;53.586;10.610;2024-02-23T03:10:38;97868.75;;;4.80;100.00
62150;BME280;48134;53.586;10.610;2024-02-23T03:13:12;97878.25;;;4.77;100.00
62150;BME280;48134;53.586;10.610;2024-02-23T03:15:46;97882.84;;;4.76;100.00
62150;BME280;48134;53.586;10.610;2024-02-23T03:18:19;97903.25;;;4.69;100.00
62150;BME280;48134;53.586;10.610;2024-02-23T03:20:47;97907.69;;;4.73;100.00
62150;BME280;48134;53.586;10.610;2024-02-23T03:23:20;97918.91;;;4.67;100.00
62150;BME280;48134;53.586;10.610;2024-02-23T03:25:54;97923.69;;;4.70;100.00
62150;BME280;48134;53.586;10.610;2024-02-23T03:28:28;97923.78;;;4.56;100.00
62150;BME280;48134;53.586;10.610;2024-02-23T03:31:02;97934.72;;;4.59;100.00
62150;BME280;48134;53.586;10.610;2024-02-23T03:33:35;97926.47;;;4.56;100.00
62150;BME280;48134;53.586;10.610;2024-02-23T03:36:08;97933.59;;;4.52;100.00
62150;BME280;48134;53.586;10.610;2024-02-23T03:38:42;97929.28;;;4.51;100.00
62150;BME280;48134;53.586;10.610;2024-02-23T03:41:15;97939.88;;;4.47;100.00
62150;BME280;48134;53.586;10.610;2024-02-23T03:43:49;97932.84;;;4.37;100.00
62150;BME280;48134;53.586;10.610;2024-02-23T03:46:23;97950.91;;;4.37;100.00
62150;BME280;48134;53.586;10.610;2024-02-23T03:48:51;97962.09;;;4.30;100.00
62150;BME280;48134;53.586;10.610;2024-02-23T03:51:20;97974.16;;;4.33;100.00
62150;BME280;48134;53.586;10.610;2024-02-23T03:53:48;97980.94;;;4.30;100.00
62150;BME280;48134;53.586;10.610;2024-02-23T03:56:21;97990.78;;;4.35;100.00
62150;BME280;48134;53.586;10.610;2024-02-23T03:58:51;98001.25;;;4.36;100.00
62150;BME280;48134;53.586;10.610;2024-02-23T04:01:24;98005.38;;;4.34;100.00
62150;BME280;48134;53.586;10.610;2024-02-23T04:03:57;98004.84;;;4.32;100.00
62150;BME280;48134;53.586;10.610;2024-02-23T04:06:26;98012.56;;;4.24;100.00
62150;BME280;48134;53.586;10.610;2024-02-23T04:08:59;98015.19;;;4.16;100.00
62150;BME280;48134;53.586;10.610;2024-02-23T04:11:32;98028.66;;;4.16;100.00
62150;BME280;48134;53.586;10.610;2024-02-23T04:14:07;98035.53;;;4.08;100.00
62150;BME280;48134;53.586;10.610;2024-02-23T04:16:40;98035.63;;;4.03;100.00
62150;BME280;48134;53.586;10.610;2024-02-23T04:19:13;98043.94;;;3.92;100.00
62150;BME280;48134;53.586;10.610;2024-02-23T04:21:46;98047.72;;;3.91;100.00
62150;BME280;48134;53.586;10.610;2024-02-23T04:24:15;98054.31;;;3.85;100.00
62150;BME280;48134;53.586;10.610;2024-02-23T04:26:48;98064.16;;;3.76;100.00
62150;BME280;48134;53.586;10.610;2024-02-23T04:29:22;98079.00;;;3.73;100.00
62150;BME280;48134;53.586;10.610;2024-02-23T04:31:55;98077.78;;;3.66;100.00
62150;BME280;48134;53.586;10.610;2024-02-23T04:34:29;98080.19;;;3.67;100.00
62150;BME280;48134;53.586;10.610;2024-02-23T04:36:57;98085.56;;;3.53;100.00
62150;BME280;48134;53.586;10.610;2024-02-23T04:39:30;98094.91;;;3.56;100.00
62150;BME280;48134;53.586;10.610;2024-02-23T04:41:59;98104.38;;;3.53;100.00
62150;BME280;48134;53.586;10.610;2024-02-23T04:44:33;98105.91;;;3.60;100.00
62150;BME280;48134;53.586;10.610;2024-02-23T04:47:06;98108.19;;;3.66;100.00
62150;BME280;48134;53.586;10.610;2024-02-23T04:49:39;98121.03;;;3.69;100.00
62150;BME280;48134;53.586;10.610;2024-02-23T04:52:13;98131.41;;;3.76;100.00
62150;BME280;48134;53.586;10.610;2024-02-23T04:54:46;98137.19;;;3.69;100.00
62150;BME280;48134;53.586;10.610;2024-02-23T04:57:19;98144.25;;;3.79;100.00
62150;BME280;48134;53.586;10.610;2024-02-23T04:59:54;98138.28;;;3.82;100.00
62150;BME280;48134;53.586;10.610;2024-02-23T05:02:27;98138.81;;;3.84;100.00
62150;BME280;48134;53.586;10.610;2024-02-23T05:05:06;98148.34;;;3.90;100.00
62150;BME280;48134;53.586;10.610;2024-02-23T05:07:40;98149.56;;;3.98;100.00
62150;BME280;48134;53.586;10.610;2024-02-23T05:10:09;98155.63;;;3.90;100.00
62150;BME280;48134;53.586;10.610;2024-02-23T05:12:42;98156.34;;;3.96;100.00
62150;BME280;48134;53.586;10.610;2024-02-23T05:15:17;98150.88;;;4.01;100.00
62150;BME280;48134;53.586;10.610;2024-02-23T05:17:50;98168.09;;;4.00;100.00
62150;BME280;48134;53.586;10.610;2024-02-23T05:20:23;98175.78;;;4.06;100.00
62150;BME280;48134;53.586;10.610;2024-02-23T05:22:51;98188.63;;;4.09;100.00
62150;BME280;48134;53.586;10.610;2024-02-23T05:25:24;98191.41;;;4.04;100.00
62150;BME280;48134;53.586;10.610;2024-02-23T05:27:58;98184.47;;;4.03;100.00
62150;BME280;48134;53.586;10.610;2024-02-23T05:30:28;98189.44;;;4.10;100.00
62150;BME280;48134;53.586;10.610;2024-02-23T05:33:03;98204.69;;;4.15;100.00
62150;BME280;48134;53.586;10.610;2024-02-23T05:35:36;98210.38;;;4.13;100.00
62150;BME280;48134;53.586;10.610;2024-02-23T05:38:09;98211.88;;;4.05;100.00
62150;BME280;48134;53.586;10.610;2024-02-23T05:40:43;98195.94;;;4.09;100.00
62150;BME280;48134;53.586;10.610;2024-02-23T05:43:17;98188.84;;;3.99;100.00
62150;BME280;48134;53.586;10.610;2024-02-23T05:45:51;98223.81;;;3.99;100.00
62150;BME280;48134;53.586;10.610;2024-02-23T05:48:22;98224.41;;;3.96;100.00
62150;BME280;48134;53.586;10.610;2024-02-23T05:50:55;98231.09;;;3.99;100.00
62150;BME280;48134;53.586;10.610;2024-02-23T05:53:23;98234.88;;;3.98;100.00
62150;BME280;48134;53.586;10.610;2024-02-23T05:55:51;98240.84;;;3.95;100.00
62150;BME280;48134;53.586;10.610;2024-02-23T05:58:19;98234.16;;;3.92;100.00
62150;BME280;48134;53.586;10.610;2024-02-23T06:00:54;98242.91;;;3.84;100.00
62150;BME280;48134;53.586;10.610;2024-02-23T06:03:27;98258.25;;;3.83;100.00
62150;BME280;48134;53.586;10.610;2024-02-23T06:06:00;98252.28;;;3.86;100.00
62150;BME280;48134;53.586;10.610;2024-02-23T06:08:33;98257.03;;;3.75;100.00
62150;BME280;48134;53.586;10.610;2024-02-23T06:11:09;98247.00;;;3.81;100.00
62150;BME280;48134;53.586;10.610;2024-02-23T06:13:42;98255.94;;;3.77;100.00
62150;BME280;48134;53.586;10.610;2024-02-23T06:16:17;98273.78;;;3.72;100.00
62150;BME280;48134;53.586;10.610;2024-02-23T06:18:50;98270.88;;;3.69;100.00
62150;BME280;48134;53.586;10.610;2024-02-23T06:21:23;98287.50;;;3.71;100.00
62150;BME280;48134;53.586;10.610;2024-02-23T06:23:56;98289.78;;;3.64;100.00
62150;BME280;48134;53.586;10.610;2024-02-23T06:26:30;98297.69;;;3.74;100.00
62150;BME280;48134;53.586;10.610;2024-02-23T06:28:58;98307.78;;;3.82;100.00
62150;BME280;48134;53.586;10.610;2024-02-23T06:31:33;98291.47;;;3.92;100.00
62150;BME280;48134;53.586;10.610;2024-02-23T06:34:01;98305.09;;;3.82;100.00
62150;BME280;48134;53.586;10.610;2024-02-23T06:36:29;98326.19;;;3.75;100.00
62150;BME280;48134;53.586;10.610;2024-02-23T06:38:58;98312.03;;;3.69;100.00
62150;BME280;48134;53.586;10.610;2024-02-23T06:41:31;98322.06;;;3.64;100.00
62150;BME280;48134;53.586;10.610;2024-02-23T06:44:03;98327.16;;;3.65;100.00
62150;BME280;48134;53.586;10.610;2024-02-23T06:46:38;98326.56;;;3.68;100.00
62150;BME280;48134;53.586;10.610;2024-02-23T06:49:06;98339.41;;;3.71;100.00
62150;BME280;48134;53.586;10.610;2024-02-23T06:51:39;98344.78;;;3.71;100.00
62150;BME280;48134;53.586;10.610;2024-02-23T06:54:09;98344.13;;;3.80;100.00
62150;BME280;48134;53.586;10.610;2024-02-23T06:56:42;98345.25;;;3.79;100.00
62150;BME280;48134;53.586;10.610;2024-02-23T06:59:15;98353.88;;;3.75;100.00
62150;BME280;48134;53.586;10.610;2024-02-23T07:01:50;98357.38;;;3.76;100.00
62150;BME280;48134;53.586;10.610;2024-02-23T07:04:24;98367.63;;;3.74;100.00
62150;BME280;48134;53.586;10.610;2024-02-23T07:06:58;98376.22;;;3.76;100.00
62150;BME280;48134;53.586;10.610;2024-02-23T07:09:38;98378.38;;;3.74;100.00
62150;BME280;48134;53.586;10.610;2024-02-23T07:12:11;98394.69;;;3.83;100.00
62150;BME280;48134;53.586;10.610;2024-02-23T07:14:45;98387.13;;;3.85;100.00
62150;BME280;48134;53.586;10.610;2024-02-23T07:17:17;98400.63;;;3.80;100.00
62150;BME280;48134;53.586;10.610;2024-02-23T07:19:45;98406.00;;;3.80;100.00
62150;BME280;48134;53.586;10.610;2024-02-23T07:22:14;98406.97;;;3.89;100.00
62150;BME280;48134;53.586;10.610;2024-02-23T07:24:49;98406.31;;;3.78;100.00
62150;BME280;48134;53.586;10.610;2024-02-23T07:27:23;98414.91;;;3.80;100.00
62150;BME280;48134;53.586;10.610;2024-02-23T07:29:51;98422.63;;;3.87;100.00
62150;BME280;48134;53.586;10.610;2024-02-23T07:32:21;98423.41;;;3.87;100.00
62150;BME280;48134;53.586;10.610;2024-02-23T07:34:54;98430.16;;;3.85;100.00
62150;BME280;48134;53.586;10.610;2024-02-23T07:37:22;98436.44;;;3.99;100.00
62150;BME280;48134;53.586;10.610;2024-02-23T07:39:50;98444.66;;;4.08;100.00
62150;BME280;48134;53.586;10.610;2024-02-23T07:42:27;98447.56;;;4.45;100.00
62150;BME280;48134;53.586;10.610;2024-02-23T07:44:57;98447.75;;;4.67;100.00
62150;BME280;48134;53.586;10.610;2024-02-23T07:47:32;98444.16;;;4.72;100.00
62150;BME280;48134;53.586;10.610;2024-02-23T07:50:07;98449.19;;;4.79;100.00
62150;BME280;48134;53.586;10.610;2024-02-23T07:52:36;98455.84;;;4.67;100.00
62150;BME280;48134;53.586;10.610;2024-02-23T07:55:09;98460.25;;;4.77;100.00
62150;BME280;48134;53.586;10.610;2024-02-23T07:57:42;98468.41;;;4.72;100.00
62150;BME280;48134;53.586;10.610;2024-02-23T08:00:16;98474.22;;;4.79;100.00
62150;BME280;48134;53.586;10.610;2024-02-23T08:02:51;98464.94;;;4.71;100.00
62150;BME280;48134;53.586;10.610;2024-02-23T08:05:24;98458.47;;;4.86;100.00
62150;BME280;48134;53.586;10.610;2024-02-23T08:07:57;98474.88;;;5.04;100.00
62150;BME280;48134;53.586;10.610;2024-02-23T08:10:25;98461.22;;;5.28;100.00
62150;BME280;48134;53.586;10.610;2024-02-23T08:12:59;98472.19;;;5.18;100.00
62150;BME280;48134;53.586;10.610;2024-02-23T08:15:32;98473.41;;;5.25;100.00
62150;BME280;48134;53.586;10.610;2024-02-23T08:18:09;98480.47;;;5.07;100.00
62150;BME280;48134;53.586;10.610;2024-02-23T08:20:42;98484.97;;;5.12;100.00
62150;BME280;48134;53.586;10.610;2024-02-23T08:23:15;98472.88;;;5.09;100.00
62150;BME280;48134;53.586;10.610;2024-02-23T08:25:43;98499.44;;;5.16;100.00
62150;BME280;48134;53.586;10.610;2024-02-23T08:28:16;98488.47;;;5.13;100.00
62150;BME280;48134;53.586;10.610;2024-02-23T08:30:49;98492.16;;;5.03;100.00
62150;BME280;48134;53.586;10.610;2024-02-23T08:33:19;98499.13;;;5.04;100.00
62150;BME280;48134;53.586;10.610;2024-02-23T08:35:47;98495.44;;;5.14;100.00
62150;BME280;48134;53.586;10.610;2024-02-23T08:38:16;98494.97;;;5.11;100.00
62150;BME280;48134;53.586;10.610;2024-02-23T08:40:45;98503.63;;;4.94;100.00
62150;BME280;48134;53.586;10.610;2024-02-23T08:43:13;98508.41;;;4.98;100.00
62150;BME280;48134;53.586;10.610;2024-02-23T08:45:46;98496.81;;;4.97;100.00
62150;BME280;48134;53.586;10.610;2024-02-23T08:48:23;98504.03;;;5.02;100.00
62150;BME280;48134;53.586;10.610;2024-02-23T08:50:51;98508.19;;;4.94;100.00
62150;BME280;48134;53.586;10.610;2024-02-23T08:53:19;98515.50;;;4.93;100.00
62150;BME280;48134;53.586;10.610;2024-02-23T08:55:53;98516.50;;;4.98;100.00
62150;BME280;48134;53.586;10.610;2024-02-23T08:58:26;98518.59;;;5.01;100.00
62150;BME280;48134;53.586;10.610;2024-02-23T09:00:59;98526.81;;;5.09;100.00
62150;BME280;48134;53.586;10.610;2024-02-23T09:03:29;98529.50;;;5.09;100.00
62150;BME280;48134;53.586;10.610;2024-02-23T09:05:58;98535.13;;;5.27;100.00
62150;BME280;48134;53.586;10.610;2024-02-23T09:08:32;98538.66;;;5.41;100.00
62150;BME280;48134;53.586;10.610;2024-02-23T09:11:05;98549.66;;;5.59;100.00
62150;BME280;48134;53.586;10.610;2024-02-23T09:13:39;98550.88;;;5.67;100.00
62150;BME280;48134;53.586;10.610;2024-02-23T09:16:14;98546.47;;;5.57;100.00
62150;BME280;48134;53.586;10.610;2024-02-23T09:18:49;98556.34;;;5.61;100.00
62150;BME280;48134;53.586;10.610;2024-02-23T09:21:17;98551.94;;;5.66;100.00
62150;BME280;48134;53.586;10.610;2024-02-23T09:23:45;98575.06;;;5.72;100.00
62150;BME280;48134;53.586;10.610;2024-02-23T09:26:19;98551.47;;;5.77;100.00
62150;BME280;48134;53.586;10.610;2024-02-23T09:28:52;98561.13;;;5.78;100.00
62150;BME280;48134;53.586;10.610;2024-02-23T09:31:20;98564.56;;;5.84;100.00
62150;BME280;48134;53.586;10.610;2024-02-23T09:33:54;98570.66;;;5.90;100.00
62150;BME280;48134;53.586;10.610;2024-02-23T09:36:23;98560.47;;;6.01;100.00
62150;BME280;48134;53.586;10.610;2024-02-23T09:38:51;98566.16;;;6.13;100.00
62150;BME280;48134;53.586;10.610;2024-02-23T09:41:20;98576.78;;;6.09;100.00
62150;BME280;48134;53.586;10.610;2024-02-23T09:43:57;98582.78;;;6.06;100.00
62150;BME280;48134;53.586;10.610;2024-02-23T09:46:31;98588.59;;;6.00;100.00
62150;BME280;48134;53.586;10.610;2024-02-23T09:49:07;98593.69;;;6.01;100.00
62150;BME280;48134;53.586;10.610;2024-02-23T09:51:41;98600.16;;;5.86;100.00
62150;BME280;48134;53.586;10.610;2024-02-23T09:54:15;98600.06;;;5.91;100.00
62150;BME280;48134;53.586;10.610;2024-02-23T09:56:49;98604.38;;;6.06;100.00
62150;BME280;48134;53.586;10.610;2024-02-23T09:59:24;98609.19;;;6.09;100.00
62150;BME280;48134;53.586;10.610;2024-02-23T10:02:00;98609.34;;;6.13;100.00
62150;BME280;48134;53.586;10.610;2024-02-23T10:04:31;98610.47;;;6.26;100.00
62150;BME280;48134;53.586;10.610;2024-02-23T10:07:00;98622.56;;;6.28;100.00
62150;BME280;48134;53.586;10.610;2024-02-23T10:09:33;98617.28;;;6.23;100.00
62150;BME280;48134;53.586;10.610;2024-02-23T10:12:01;98629.78;;;6.19;100.00
62150;BME280;48134;53.586;10.610;2024-02-23T10:14:30;98638.47;;;6.30;100.00
62150;BME280;48134;53.586;10.610;2024-02-23T10:17:03;98644.97;;;6.43;100.00
62150;BME280;48134;53.586;10.610;2024-02-23T10:19:40;98645.75;;;6.29;100.00
62150;BME280;48134;53.586;10.610;2024-02-23T10:22:13;98642.34;;;6.38;100.00
62150;BME280;48134;53.586;10.610;2024-02-23T10:24:42;98652.16;;;6.34;100.00
62150;BME280;48134;53.586;10.610;2024-02-23T10:27:15;98665.38;;;6.35;100.00
62150;BME280;48134;53.586;10.610;2024-02-23T10:29:43;98666.28;;;6.44;100.00
62150;BME280;48134;53.586;10.610;2024-02-23T10:32:14;98669.94;;;6.62;100.00
62150;BME280;48134;53.586;10.610;2024-02-23T10:34:47;98674.38;;;6.58;100.00
62150;BME280;48134;53.586;10.610;2024-02-23T10:37:22;98671.38;;;6.46;100.00
62150;BME280;48134;53.586;10.610;2024-02-23T10:39:55;98685.09;;;6.50;100.00
62150;BME280;48134;53.586;10.610;2024-02-23T10:42:33;98679.78;;;6.58;100.00
62150;BME280;48134;53.586;10.610;2024-02-23T10:45:07;98687.25;;;6.89;100.00
62150;BME280;48134;53.586;10.610;2024-02-23T10:47:41;98695.25;;;6.80;100.00
62150;BME280;48134;53.586;10.610;2024-02-23T10:50:11;98691.06;;;6.74;100.00
62150;BME280;48134;53.586;10.610;2024-02-23T10:52:46;98677.16;;;6.81;100.00
62150;BME280;48134;53.586;10.610;2024-02-23T10:55:20;98695.88;;;6.63;100.00
62150;BME280;48134;53.586;10.610;2024-02-23T10:57:51;98691.47;;;6.68;100.00
62150;BME280;48134;53.586;10.610;2024-02-23T11:00:26;98689.06;;;6.80;100.00
62150;BME280;48134;53.586;10.610;2024-02-23T11:02:54;98694.16;;;6.81;100.00
62150;BME280;48134;53.586;10.610;2024-02-23T11:05:30;98692.06;;;6.78;100.00
62150;BME280;48134;53.586;10.610;2024-02-23T11:07:59;98707.47;;;6.78;100.00
62150;BME280;48134;53.586;10.610;2024-02-23T11:10:41;98704.34;;;6.85;100.00
62150;BME280;48134;53.586;10.610;2024-02-23T11:13:15;98704.56;;;6.88;100.00
62150;BME280;48134;53.586;10.610;2024-02-23T11:15:48;98714.03;;;7.00;100.00
62150;BME280;48134;53.586;10.610;2024-02-23T11:18:22;98711.47;;;6.80;100.00
62150;BME280;48134;53.586;10.610;2024-02-23T11:20:59;98716.47;;;6.87;100.00
62150;BME280;48134;53.586;10.610;2024-02-23T11:23:40;98715.28;;;6.93;100.00
62150;BME280;48134;53.586;10.610;2024-02-23T11:26:13;98706.56;;;6.83;100.00
62150;BME280;48134;53.586;10.610;2024-02-23T11:28:47;98704.75;;;6.92;100.00
62150;BME280;48134;53.586;10.610;2024-02-23T11:31:22;98704.00;;;7.00;100.00
62150;BME280;48134;53.586;10.610;2024-02-23T11:33:57;98706.91;;;7.04;100.00
62150;BME280;48134;53.586;10.610;2024-02-23T11:36:29;98705.63;;;7.01;100.00
62150;BME280;48134;53.586;10.610;2024-02-23T11:39:04;98693.09;;;7.05;100.00
62150;BME280;48134;53.586;10.610;2024-02-23T11:41:38;98708.44;;;6.96;100.00
62150;BME280;48134;53.586;10.610;2024-02-23T11:44:11;98707.28;;;7.11;100.00
62150;BME280;48134;53.586;10.610;2024-02-23T11:46:41;98695.28;;;7.17;100.00
62150;BME280;48134;53.586;10.610;2024-02-23T11:49:14;98699.06;;;7.39;100.00
62150;BME280;48134;53.586;10.610;2024-02-23T11:51:49;98695.28;;;7.17;100.00
62150;BME280;48134;53.586;10.610;2024-02-23T11:54:22;98703.69;;;7.15;100.00
62150;BME280;48134;53.586;10.610;2024-02-23T11:56:56;98700.31;;;7.10;100.00
62150;BME280;48134;53.586;10.610;2024-02-23T11:59:24;98692.66;;;7.12;100.00
62150;BME280;48134;53.586;10.610;2024-02-23T12:01:58;98704.47;;;7.16;100.00
62150;BME280;48134;53.586;10.610;2024-02-23T12:04:26;98688.97;;;7.08;100.00
62150;BME280;48134;53.586;10.610;2024-02-23T12:07:03;98691.38;;;7.09;100.00
62150;BME280;48134;53.586;10.610;2024-02-23T12:09:36;98685.00;;;7.28;100.00
62150;BME280;48134;53.586;10.610;2024-02-23T12:12:13;98679.28;;;7.29;100.00
62150;BME280;48134;53.586;10.610;2024-02-23T12:14:42;98673.94;;;7.15;100.00
62150;BME280;48134;53.586;10.610;2024-02-23T12:17:10;98685.84;;;7.14;100.00
62150;BME280;48134;53.586;10.610;2024-02-23T12:19:43;98682.16;;;7.10;100.00
62150;BME280;48134;53.586;10.610;2024-02-23T12:22:18;98682.06;;;7.15;100.00
62150;BME280;48134;53.586;10.610;2024-02-23T12:24:51;98686.84;;;7.19;100.00
62150;BME280;48134;53.586;10.610;2024-02-23T12:27:24;98683.09;;;7.06;100.00
62150;BME280;48134;53.586;10.610;2024-02-23T12:29:58;98691.06;;;7.11;100.00
62150;BME280;48134;53.586;10.610;2024-02-23T12:32:26;98700.09;;;7.06;100.00
62150;BME280;48134;53.586;10.610;2024-02-23T12:34:54;98691.06;;;7.11;100.00
62150;BME280;48134;53.586;10.610;2024-02-23T12:37:24;98692.09;;;7.01;100.00
62150;BME280;48134;53.586;10.610;2024-02-23T12:39:58;98699.00;;;7.07;100.00
62150;BME280;48134;53.586;10.610;2024-02-23T12:42:26;98694.16;;;7.18;100.00
62150;BME280;48134;53.586;10.610;2024-02-23T12:44:59;98693.59;;;7.30;100.00
62150;BME280;48134;53.586;10.610;2024-02-23T12:47:32;98699.94;;;7.25;100.00
62150;BME280;48134;53.586;10.610;2024-02-23T12:50:07;98699.59;;;7.18;100.00
62150;BME280;48134;53.586;10.610;2024-02-23T12:52:43;98698.28;;;7.15;100.00
62150;BME280;48134;53.586;10.610;2024-02-23T12:55:17;98694.66;;;7.20;100.00
62150;BME280;48134;53.586;10.610;2024-02-23T12:57:50;98694.19;;;7.04;100.00
62150;BME280;48134;53.586;10.610;2024-02-23T13:00:23;98694.41;;;7.30;100.00
62150;BME280;48134;53.586;10.610;2024-02-23T13:02:56;98707.94;;;7.30;100.00
62150;BME280;48134;53.586;10.610;2024-02-23T13:05:29;98715.88;;;7.49;100.00
62150;BME280;48134;53.586;10.610;2024-02-23T13:08:05;98713.13;;;7.41;100.00
62150;BME280;48134;53.586;10.610;2024-02-23T13:10:33;98734.97;;;7.44;100.00
62150;BME280;48134;53.586;10.610;2024-02-23T13:13:07;98734.41;;;7.34;100.00
62150;BME280;48134;53.586;10.610;2024-02-23T13:15:40;98734.81;;;7.49;100.00
62150;BME280;48134;53.586;10.610;2024-02-23T13:18:14;98735.56;;;7.41;100.00